Aviation Digital Data Service (ADDS)

Output produced by METARs form (0428 UTC 26 May 2018)
found at http://www.aviationweather.gov/adds/metars/
 
KJAC 252327Z 2600/2624 21007KT P6SM SCT080 
     FM260200 35006KT P6SM FEW100 
     FM262200 20008KT P6SM BKN070 AMD LTD TO CLD VIS AND WIND
       
KJAN 252344Z 2600/2624 19004KT P6SM SCT050 BKN090 
     FM261100 18003KT 6SM BR BKN015 BKN090 
     FM261400 19003KT P6SM SCT025 BKN040 
     FM261500 19003KT P6SM VCTS SCT025 BKN040CB 
     FM261900 21004KT 6SM SHRA VCTS SCT030 BKN050CB
       
KJAX 252340Z 2600/2624 14009KT P6SM FEW030 BKN250 
     FM260500 VRB02KT P6SM BKN250 
     FM261400 17007KT P6SM SCT020 BKN250 
     FM261600 15010KT P6SM VCSH SCT035 BKN250
       
KJBR 252332Z 2600/2624 VRB03KT P6SM VCTS SCT045CB BKN070 
     FM260200 VRB03KT P6SM SCT060 SCT250 
     FM261600 21005KT P6SM VCTS SCT040CB SCT250 
     TEMPO 2619/2623 3SM TSRA BKN040CB
       
KJFK 260230Z 2603/2706 22011KT P6SM FEW250 
     FM260900 22007KT P6SM FEW060 SCT250 
     FM261600 20012KT P6SM SCT060 BKN250 
     FM262200 19010KT P6SM VCTS BKN050CB OVC100 
     FM270200 21006KT 5SM -SHRA BKN050
       
KJER 252336Z 2600/2624 13012G20KT P6SM SCT150 
     FM260400 20010KT P6SM BKN150 
     FM261800 25010G15KT P6SM BKN150
       
KJHW 260248Z 2603/2624 VRB03KT P6SM SKC 
     FM261800 26006KT P6SM BKN110 AMD LTD TO CLD VIS AND WIND
       
KJMS 260301Z 2603/2624 27005KT P6SM SKC 
     FM261500 28008KT P6SM SKC
       
KJST 260344Z 2604/2624 23005KT P6SM FEW050 
     FM260700 VRB03KT P6SM -SHRA BKN050 
     FM261000 25005KT P6SM SCT050 
     FM261600 28006KT P6SM BKN050